Airfield :







YOU CAN JOIN US ON...

 
LOGIN :

Register | Disclaimer

   EN    FR    IT 

 









Legend :    VFR   Marginal VFR   IFR   Intensive IFR   Very Intensive IFR
Visi :
Ceiling :
>= 8 km
>= 3000ft
5 to 8 km
1000 to 3000 ft
1500m to 5 km
500 to 1000 ft
800 to 1500m
200 to 500 ft
< 800m
< 200 ft
Symbols :   Thunderstorms  Fog  Heavy snow  Heavy precipitations  Wind > 20 kt






- Airport Elevation : 244 ft
- IATA code : YQB


CYQB - Quebec - Jean Lesage Int.

CURRENT METAR :
  • 280733Z 00000KT 1 1/2SM R06/3000V5500FT/U -DZ BR OVC004 01/01 A2988 RMK ST8 VIS VRB 1-2 SLP122

EXPIRED METARs :
  • 280700Z 00000KT 1 1/2SM R06/3000V3500FT/N -RA BR BKN003 OVC017 01/01 A2988 RMK ST7SC1 VIS VRB 1-2 SLP123
  • 280600Z 03002KT 3/4SM R06/2400V3000FT/N -DZ BR OVC002 01/01 A2989 RMK ST8 SLP128
  • 280500Z 00000KT 1SM R06/1600V2000FT/N -DZ BR OVC003 01/01 A2992 RMK ST8 VIS VRB 3/4-1 1/4, CIG VRB 002-004 SLP136

TAF TAF CYQB
Valid from the 28 at 06:00 until the 29 at 06:00 UTC


280540Z 2806/2906 VRB03KT 1SM -RASN -DZ BR OVC003
TEMPO 2806/2812 1/2SM FZFG VV002
PROB30 2806/2812 1/4SM FZFG VV001
FM281200 VRB03KT 3/4SM BR BKN002 OVC020
TEMPO 2812/2815 3SM -SN -DZ BR SCT002 OVC020
PROB30 2812/2815 1SM -FZDZ BR
FM281500 25007KT 6SM -SNRA BR BKN006 OVC040
FM282300 25006KT 3/4SM -RASN -DZ BR OVC003
FM290400 25010KT 6SM BR FEW003 OVC030 RMK NXT FCST BY 281200Z
ATIS : ENG : +1 418-871-6893 FRA : +1 418-871-6895
CZUL FIR / North America



MET'MAP, your aeronautical weather chart ! - Copyright ORBIFLY December 2007 - Disclaimer

ORBIFLY MET'MAP TEAM :

Programming & Development : Alexandra Zaïnal
Concept & original design : Baudouin d'Aumeries
Assistance for programming : Marc-Olivier Méhu
Technical & hardware support : Manuel Goepfert

Contact : metmap@orbifly.com




SOURCES & CREDITS :

   NOAA